KMGC/MGC METAR and TAF weather

Enter ICAO airport designator
Station Type Date Time Source
KMGC METAR 2020/09/25 20:55 UTC NOAA

KMGC 252055Z AUTO 19007KT 160V220 10SM CLR 26/16 A2992 RMK AO2


Station Type Date Time Source
KMGC Decoded METAR 2020/09/25 20:55 UTC NOAA

Station name not available
Sep 25, 2020 - 04:55 PM EDT / 2020.09.25 2055 UTC
Wind: from the S (190 degrees) at 8 MPH (7 KT) (direction variable):0
Visibility: 10 mile(s):0
Sky conditions: clear
Temperature: 78 F (26 C)
Dew Point: 60 F (16 C)
Relative Humidity: 54%
Pressure (altimeter): 29.92 in. Hg (1013 hPa)
ob: KMGC 252055Z AUTO 19007KT 160V220 10SM CLR 26/16 A2992 RMK AO2
cycle: 21

Station Type Date Time Source
KMGC TAF UTC NOAA

Error!

Example: see airport list